Time;durP1;ratioP1;P1;durP2;ratioP2;P2;SDS_P1;SDS_P2;PMS_P1;PMS_P2;Temp;Humidity;BMP_temperature;BMP_pressure;BME280_temperature;BME280_humidity;BME280_pressure;Samples;Min_cycle;Max_cycle;Signal;HPM_P1;HPM_P2
2021/07/01 00:00:46;;;;;;;1.40;1.40;;;;;;;;;;5072907;28;24469;-65
2021/07/01 00:18:26;;;;;;;1.70;1.60;;;;;;;;;;5078533;28;24421;-65
2021/07/01 00:20:51;;;;;;;1.80;1.70;;;;;;;;;;5078958;28;24438;-65
2021/07/01 00:23:16;;;;;;;1.87;1.77;;;;;;;;;;5067920;28;24521;-65
2021/07/01 00:25:42;;;;;;;1.60;1.50;;;;;;;;;;5079872;28;25302;-65
2021/07/01 00:28:07;;;;;;;1.53;1.43;;;;;;;;;;5070459;28;24456;-65
2021/07/01 00:30:32;;;;;;;1.90;1.80;;;;;;;;;;5077610;28;24913;-65
2021/07/01 00:32:57;;;;;;;2.40;1.50;;;;;;;;;;5067437;28;24405;-66
2021/07/01 00:35:22;;;;;;;1.70;1.60;;;;;;;;;;5073966;28;24737;-65
2021/07/01 00:37:48;;;;;;;1.70;1.60;;;;;;;;;;5070946;28;24937;-66
2021/07/01 00:40:14;;;;;;;1.80;1.70;;;;;;;;;;5073009;28;24510;-65
2021/07/01 00:42:39;;;;;;;2.00;1.50;;;;;;;;;;5066923;28;25180;-65
2021/07/01 00:45:06;;;;;;;1.50;1.40;;;;;;;;;;5074684;28;24422;-66
2021/07/01 00:47:32;;;;;;;1.60;1.50;;;;;;;;;;5072331;28;24461;-65
2021/07/01 00:49:57;;;;;;;1.50;1.40;;;;;;;;;;5069756;28;24430;-66
2021/07/01 00:52:22;;;;;;;1.60;1.50;;;;;;;;;;5077208;28;24814;-66
2021/07/01 00:54:47;;;;;;;1.80;1.70;;;;;;;;;;5080178;28;24773;-66
2021/07/01 00:57:12;;;;;;;1.60;1.50;;;;;;;;;;5073834;28;24982;-65
2021/07/01 00:59:38;;;;;;;1.80;1.70;;;;;;;;;;5072059;28;24407;-65
2021/07/01 01:02:06;;;;;;;1.60;1.50;;;;;;;;;;5078782;28;24954;-66
2021/07/01 01:04:31;;;;;;;1.70;1.55;;;;;;;;;;5070907;28;24780;-65
2021/07/01 01:06:57;;;;;;;1.50;1.40;;;;;;;;;;5082801;28;24425;-65
2021/07/01 01:09:22;;;;;;;1.58;1.48;;;;;;;;;;5074228;28;25076;-65
2021/07/01 01:11:47;;;;;;;1.67;1.57;;;;;;;;;;5063987;28;25078;-65
2021/07/01 01:14:13;;;;;;;1.67;1.57;;;;;;;;;;5073758;28;24419;-66
2021/07/01 01:16:38;;;;;;;1.40;1.30;;;;;;;;;;5073229;28;24734;-66
2021/07/01 01:19:03;;;;;;;1.70;1.60;;;;;;;;;;5070524;28;24407;-65
2021/07/01 01:21:29;;;;;;;1.70;1.60;;;;;;;;;;5080517;28;24414;-66
2021/07/01 01:23:55;;;;;;;1.50;1.40;;;;;;;;;;5079320;28;24418;-65
2021/07/01 01:26:20;;;;;;;1.70;1.50;;;;;;;;;;5078238;28;24951;-65
2021/07/01 01:28:46;;;;;;;1.53;1.47;;;;;;;;;;5081572;28;25067;-64
2021/07/01 01:31:11;;;;;;;1.93;1.83;;;;;;;;;;5079896;28;24410;-65
2021/07/01 01:33:36;;;;;;;1.80;1.70;;;;;;;;;;5065760;28;24476;-65
2021/07/01 01:36:01;;;;;;;1.47;1.37;;;;;;;;;;5077779;28;24468;-65
2021/07/01 01:38:27;;;;;;;1.50;1.40;;;;;;;;;;5073018;28;24469;-65
2021/07/01 01:40:52;;;;;;;1.80;1.60;;;;;;;;;;5069443;28;24515;-64
2021/07/01 01:43:18;;;;;;;2.10;1.60;;;;;;;;;;5066000;28;24531;-66
2021/07/01 01:45:43;;;;;;;2.03;1.83;;;;;;;;;;5073670;28;24407;-65
2021/07/01 01:48:09;;;;;;;1.70;1.60;;;;;;;;;;5079816;28;25273;-65
2021/07/01 01:50:34;;;;;;;1.70;1.60;;;;;;;;;;5070308;28;24419;-65
2021/07/01 01:53:00;;;;;;;1.30;1.30;;;;;;;;;;5073165;28;24410;-66
2021/07/01 01:55:25;;;;;;;1.40;1.40;;;;;;;;;;5079734;28;24816;-65
2021/07/01 01:57:51;;;;;;;1.73;1.63;;;;;;;;;;5078526;28;24966;-65
2021/07/01 02:00:17;;;;;;;2.33;2.13;;;;;;;;;;5082712;28;24502;-65
2021/07/01 02:02:42;;;;;;;1.80;1.70;;;;;;;;;;5067095;28;24479;-66
2021/07/01 02:05:08;;;;;;;1.87;1.77;;;;;;;;;;5071474;28;25309;-65
2021/07/01 02:07:34;;;;;;;1.60;1.50;;;;;;;;;;5067055;28;25097;-65
2021/07/01 02:09:59;;;;;;;1.83;1.73;;;;;;;;;;5064800;28;24476;-66
2021/07/01 02:12:25;;;;;;;1.90;1.80;;;;;;;;;;5065379;28;24694;-64
2021/07/01 02:14:50;;;;;;;1.90;1.80;;;;;;;;;;5071027;28;24550;-65
2021/07/01 02:17:15;;;;;;;1.80;1.70;;;;;;;;;;5087149;28;24440;-64
2021/07/01 02:19:40;;;;;;;1.70;1.60;;;;;;;;;;5072346;28;24476;-64
2021/07/01 02:22:05;;;;;;;1.92;1.70;;;;;;;;;;5076258;28;24978;-64
2021/07/01 02:24:30;;;;;;;2.00;1.77;;;;;;;;;;5070827;28;24926;-65
2021/07/01 02:26:56;;;;;;;1.90;1.80;;;;;;;;;;5084951;28;24410;-65
2021/07/01 02:29:21;;;;;;;1.85;1.75;;;;;;;;;;5082025;28;24785;-65
2021/07/01 02:31:46;;;;;;;2.00;1.70;;;;;;;;;;5080216;28;24467;-65
2021/07/01 02:34:12;;;;;;;1.90;1.80;;;;;;;;;;5071678;28;25058;-66
2021/07/01 02:36:37;;;;;;;2.08;1.98;;;;;;;;;;5074932;28;24426;-66
2021/07/01 02:39:02;;;;;;;1.83;1.73;;;;;;;;;;5087055;28;24454;-66
2021/07/01 02:41:27;;;;;;;2.05;1.77;;;;;;;;;;5066198;28;24948;-66
2021/07/01 02:43:53;;;;;;;1.83;1.73;;;;;;;;;;5087466;28;24406;-65
2021/07/01 02:46:18;;;;;;;1.70;1.60;;;;;;;;;;5076983;28;24944;-65
2021/07/01 02:48:43;;;;;;;2.00;1.90;;;;;;;;;;5076753;28;25128;-65
2021/07/01 02:51:08;;;;;;;2.35;2.15;;;;;;;;;;5083034;28;24418;-65
2021/07/01 02:53:33;;;;;;;2.20;2.10;;;;;;;;;;5075548;28;24430;-65
2021/07/01 02:55:58;;;;;;;2.40;2.07;;;;;;;;;;5077385;28;24469;-65
2021/07/01 02:58:24;;;;;;;2.40;2.30;;;;;;;;;;5071492;28;24426;-65
2021/07/01 03:00:49;;;;;;;1.93;1.83;;;;;;;;;;5075174;28;24422;-65
2021/07/01 03:03:14;;;;;;;2.00;1.90;;;;;;;;;;5068107;28;24406;-63
2021/07/01 03:05:39;;;;;;;2.20;2.10;;;;;;;;;;5080547;28;24561;-64
2021/07/01 03:08:04;;;;;;;2.17;2.07;;;;;;;;;;5067124;28;24838;-64
2021/07/01 03:10:29;;;;;;;2.20;2.10;;;;;;;;;;5076557;28;25035;-64
2021/07/01 03:12:54;;;;;;;2.20;2.10;;;;;;;;;;5071054;28;24414;-64
2021/07/01 03:15:20;;;;;;;2.13;2.03;;;;;;;;;;5077239;28;24415;-65
2021/07/01 03:17:45;;;;;;;2.50;2.30;;;;;;;;;;5070553;28;24553;-64
2021/07/01 03:20:10;;;;;;;2.50;2.30;;;;;;;;;;5071084;28;24429;-64
2021/07/01 03:22:35;;;;;;;2.20;2.10;;;;;;;;;;5077204;28;24458;-65
2021/07/01 03:25:00;;;;;;;2.57;2.37;;;;;;;;;;5075119;28;24461;-64
2021/07/01 03:27:26;;;;;;;2.38;2.28;;;;;;;;;;5077221;28;24445;-64
2021/07/01 03:29:51;;;;;;;2.70;2.50;;;;;;;;;;5073086;28;24494;-64
2021/07/01 03:32:16;;;;;;;2.30;2.10;;;;;;;;;;5083887;28;24405;-65
2021/07/01 03:34:41;;;;;;;2.33;2.20;;;;;;;;;;5075169;28;24979;-64
2021/07/01 03:37:06;;;;;;;2.32;2.20;;;;;;;;;;5075092;28;24545;-64
2021/07/01 03:39:31;;;;;;;2.78;2.30;;;;;;;;;;5078859;28;24427;-64
2021/07/01 03:41:57;;;;;;;2.30;2.20;;;;;;;;;;5075407;28;24932;-64
2021/07/01 03:44:22;;;;;;;2.50;2.30;;;;;;;;;;5064223;28;24472;-65
2021/07/01 03:46:47;;;;;;;3.20;2.60;;;;;;;;;;5073577;28;24422;-64
2021/07/01 03:49:12;;;;;;;2.30;2.20;;;;;;;;;;5079527;28;24436;-65
2021/07/01 03:51:38;;;;;;;2.70;2.60;;;;;;;;;;5084014;28;24468;-66
2021/07/01 03:54:04;;;;;;;2.83;2.63;;;;;;;;;;5081673;28;24414;-65
2021/07/01 03:56:40;;;;;;;2.40;2.20;;;;;;;;;;5078266;28;24418;-65
2021/07/01 03:59:05;;;;;;;2.50;2.40;;;;;;;;;;5063984;28;24835;-64
2021/07/01 04:01:31;;;;;;;2.60;2.50;;;;;;;;;;5078995;28;24983;-65
2021/07/01 04:03:56;;;;;;;2.40;2.30;;;;;;;;;;5073747;28;24422;-64
2021/07/01 04:06:21;;;;;;;2.60;2.40;;;;;;;;;;5075387;28;24526;-64
2021/07/01 04:08:46;;;;;;;2.90;2.70;;;;;;;;;;5075328;28;24860;-65
2021/07/01 04:11:11;;;;;;;2.60;2.50;;;;;;;;;;5070339;28;24422;-64
2021/07/01 04:13:36;;;;;;;2.50;2.40;;;;;;;;;;5066932;28;24418;-64
2021/07/01 04:16:01;;;;;;;2.60;2.40;;;;;;;;;;5072315;28;24403;-64
2021/07/01 04:18:27;;;;;;;2.90;2.70;;;;;;;;;;5083159;28;24446;-64
2021/07/01 04:20:52;;;;;;;2.70;2.50;;;;;;;;;;5071117;28;24445;-64
2021/07/01 04:23:17;;;;;;;2.85;2.70;;;;;;;;;;5076580;28;24426;-65
2021/07/01 04:25:48;;;;;;;2.70;2.60;;;;;;;;;;5072030;28;25049;-65
2021/07/01 04:28:13;;;;;;;3.00;2.80;;;;;;;;;;5066146;28;24813;-65
2021/07/01 04:30:38;;;;;;;2.90;2.80;;;;;;;;;;5075686;28;24415;-65
2021/07/01 04:33:03;;;;;;;2.60;2.50;;;;;;;;;;5067319;28;24422;-64
2021/07/01 04:35:28;;;;;;;3.20;3.00;;;;;;;;;;5070319;28;24436;-65
2021/07/01 04:37:53;;;;;;;3.08;2.88;;;;;;;;;;5074884;28;24471;-65
2021/07/01 04:40:18;;;;;;;3.38;3.10;;;;;;;;;;5081484;28;24976;-65
2021/07/01 04:42:44;;;;;;;4.10;3.80;;;;;;;;;;5069261;28;24407;-65
2021/07/01 04:45:09;;;;;;;4.20;3.80;;;;;;;;;;5075511;28;24425;-66
2021/07/01 04:47:35;;;;;;;3.87;3.57;;;;;;;;;;5074838;28;24418;-66
2021/07/01 04:50:02;;;;;;;4.00;3.70;;;;;;;;;;5076032;28;24661;-66
2021/07/01 04:52:27;;;;;;;4.10;3.80;;;;;;;;;;5075055;28;24433;-65
2021/07/01 04:54:53;;;;;;;4.45;4.05;;;;;;;;;;5078879;28;24937;-65
2021/07/01 04:57:18;;;;;;;5.10;4.70;;;;;;;;;;5077950;28;24426;-65
2021/07/01 04:59:43;;;;;;;5.15;4.75;;;;;;;;;;5069424;28;24466;-65
2021/07/01 05:02:08;;;;;;;4.70;4.40;;;;;;;;;;5084853;28;24398;-65
2021/07/01 05:04:33;;;;;;;5.28;4.88;;;;;;;;;;5086088;28;24410;-65
2021/07/01 05:06:58;;;;;;;5.93;5.53;;;;;;;;;;5070945;28;24450;-65
2021/07/01 05:09:23;;;;;;;5.70;5.30;;;;;;;;;;5066776;28;24430;-65
2021/07/01 05:11:49;;;;;;;6.65;6.05;;;;;;;;;;5065538;28;25008;-65
2021/07/01 05:14:14;;;;;;;6.32;5.85;;;;;;;;;;5068164;28;24464;-65
2021/07/01 05:16:39;;;;;;;6.60;6.05;;;;;;;;;;5078403;28;24542;-64
2021/07/01 05:19:04;;;;;;;8.10;7.50;;;;;;;;;;5069326;28;25070;-66
2021/07/01 05:21:29;;;;;;;7.63;6.93;;;;;;;;;;5074953;28;25031;-65
2021/07/01 05:23:55;;;;;;;8.43;7.77;;;;;;;;;;5062064;28;24422;-64
2021/07/01 05:26:20;;;;;;;7.63;7.03;;;;;;;;;;5071986;28;24961;-64
2021/07/01 05:28:45;;;;;;;8.70;8.00;;;;;;;;;;5061843;28;24446;-64
2021/07/01 05:31:11;;;;;;;8.30;7.60;;;;;;;;;;5073809;28;24509;-65
2021/07/01 05:33:37;;;;;;;8.00;7.40;;;;;;;;;;5070708;28;24410;-65
2021/07/01 05:36:02;;;;;;;8.20;7.50;;;;;;;;;;5069821;28;24465;-65
2021/07/01 05:38:27;;;;;;;7.60;7.00;;;;;;;;;;5066823;28;24425;-65
2021/07/01 05:40:52;;;;;;;7.53;7.03;;;;;;;;;;5062867;28;24519;-66
2021/07/01 05:43:18;;;;;;;7.82;7.22;;;;;;;;;;5068533;28;25101;-65
2021/07/01 05:45:43;;;;;;;8.60;7.90;;;;;;;;;;5069614;28;24855;-64
2021/07/01 05:48:09;;;;;;;7.87;7.27;;;;;;;;;;5069415;28;24430;-65
2021/07/01 05:50:41;;;;;;;9.00;8.30;;;;;;;;;;5070758;28;25043;-66
2021/07/01 05:53:08;;;;;;;8.57;7.88;;;;;;;;;;5074283;28;24457;-63
2021/07/01 05:55:33;;;;;;;8.80;8.00;;;;;;;;;;5072503;28;25235;-64
2021/07/01 05:58:05;;;;;;;8.60;7.90;;;;;;;;;;5070845;28;24980;-67
2021/07/01 06:00:30;;;;;;;7.47;6.97;;;;;;;;;;5075116;28;24500;-66
2021/07/01 06:02:55;;;;;;;7.50;7.00;;;;;;;;;;5074391;28;24435;-66
2021/07/01 06:05:20;;;;;;;7.37;6.87;;;;;;;;;;5077244;28;24426;-65
2021/07/01 06:07:50;;;;;;;7.30;6.80;;;;;;;;;;5076063;28;25009;-65
2021/07/01 06:10:18;;;;;;;7.38;6.85;;;;;;;;;;5077251;28;24422;-65
2021/07/01 06:12:44;;;;;;;6.80;6.30;;;;;;;;;;5076816;28;24438;-65
2021/07/01 06:15:09;;;;;;;7.80;7.30;;;;;;;;;;5074266;28;24447;-66
2021/07/01 06:17:35;;;;;;;7.00;6.47;;;;;;;;;;5070700;28;25130;-68
2021/07/01 06:20:00;;;;;;;;;;;;;;;;;;5081476;28;24414;-69
2021/07/01 06:22:25;;;;;;;;;;;;;;;;;;5072779;28;20411;-66
2021/07/01 06:24:54;;;;;;;6.43;5.93;;;;;;;;;;5072430;28;24414;-66
2021/07/01 08:55:32;;;;;;;4.70;4.40;;;;;;;;;;5077962;27;24399;-57
2021/07/01 08:57:58;;;;;;;5.07;4.67;;;;;;;;;;5082445;28;24479;-58
2021/07/01 09:00:24;;;;;;;4.40;4.20;;;;;;;;;;5077550;28;24968;-60
2021/07/01 09:03:03;;;;;;;4.80;4.40;;;;;;;;;;5083000;28;24498;-59
2021/07/01 09:05:30;;;;;;;3.90;3.60;;;;;;;;;;5083187;28;24410;-74
2021/07/01 09:07:58;;;;;;;3.70;3.50;;;;;;;;;;5081957;28;25032;-72
2021/07/01 09:10:23;;;;;;;118.30;77.30;;;;;;;;;;5076214;28;24450;-54
2021/07/01 09:12:53;;;;;;;334.30;300.27;;;;;;;;;;5068048;28;24431;-54
2021/07/01 09:15:18;;;;;;;;;;;;;;;;;;5074493;28;24549;-55
2021/07/01 09:17:49;;;;;;;;;;;;;;;;;;5073931;28;20305;-52
2021/07/01 09:20:18;;;;;;;;;;;;;;;;;;5064526;28;19924;-54
2021/07/01 09:22:44;;;;;;;;;;;;;;;;;;5070768;28;19913;-54
2021/07/01 09:25:09;;;;;;;;;;;;;;;;;;5065416;28;19911;-54
2021/07/01 09:27:36;;;;;;;;;;;;;;;;;;5071578;28;19908;-54
2021/07/01 09:30:02;;;;;;;;;;;;;;;;;;5081223;28;20384;-54
2021/07/01 09:32:27;;;;;;;;;;;;;;;;;;5084255;28;19987;-54
2021/07/01 09:34:52;;;;;;;;;;;;;;;;;;5066952;28;20329;-55
2021/07/01 09:37:17;;;;;;;;;;;;;;;;;;5078586;28;19912;-55
2021/07/01 09:39:42;;;;;;;;;;;;;;;;;;5084031;28;20393;-54
2021/07/01 09:42:08;;;;;;;;;;;;;;;;;;5083814;28;20367;-55
2021/07/01 09:44:33;;;;;;;;;;;;;;;;;;5073729;28;19915;-54
2021/07/01 09:46:58;;;;;;;;;;;;;;;;;;5063972;28;19905;-55
2021/07/01 09:49:23;;;;;;;;;;;;;;;;;;5063585;28;19935;-54
2021/07/01 09:51:48;;;;;;;;;;;;;;;;;;5064475;28;19911;-54
2021/07/01 09:54:13;;;;;;;;;;;;;;;;;;5072809;28;19923;-55
2021/07/01 09:56:38;;;;;;;;;;;;;;;;;;5087980;28;20006;-55
2021/07/01 09:59:03;;;;;;;;;;;;;;;;;;5087998;28;21435;-54
2021/07/01 10:01:31;;;;;;;1.80;1.40;;;;;;;;;;5086230;28;24847;-54
2021/07/01 10:03:58;;;;;;;1.80;1.50;;;;;;;;;;5090865;28;24505;-55
2021/07/01 10:06:23;;;;;;;1.90;1.80;;;;;;;;;;5090852;28;24493;-55
2021/07/01 10:08:49;;;;;;;1.50;1.40;;;;;;;;;;5070889;28;24534;-55
2021/07/01 10:11:14;;;;;;;1.80;1.70;;;;;;;;;;5078275;28;24414;-55
2021/07/01 10:13:39;;;;;;;1.90;1.70;;;;;;;;;;5074887;28;25389;-56
2021/07/01 10:16:05;;;;;;;2.50;1.80;;;;;;;;;;5084538;28;24425;-56
2021/07/01 10:18:39;;;;;;;1.60;1.50;;;;;;;;;;5079592;28;24777;-55
2021/07/01 10:21:12;;;;;;;1.50;1.40;;;;;;;;;;5074255;28;24571;-55
2021/07/01 10:23:38;;;;;;;1.70;1.60;;;;;;;;;;5082015;28;24426;-55
2021/07/01 10:26:11;;;;;;;1.60;1.50;;;;;;;;;;5074923;28;24449;-55
2021/07/01 10:28:37;;;;;;;2.33;1.80;;;;;;;;;;5081379;28;24497;-55
2021/07/01 10:31:11;;;;;;;1.38;1.30;;;;;;;;;;5079580;28;24517;-55
2021/07/01 10:33:37;;;;;;;1.80;1.70;;;;;;;;;;5079012;28;24998;-55
2021/07/01 10:36:03;;;;;;;1.50;1.40;;;;;;;;;;5087475;28;24415;-55
2021/07/01 10:38:45;;;;;;;1.67;1.58;;;;;;;;;;5078305;28;24433;-55
2021/07/01 10:41:11;;;;;;;1.60;1.50;;;;;;;;;;5072235;28;24484;-56
2021/07/01 10:43:43;;;;;;;1.30;1.27;;;;;;;;;;5079105;28;25210;-56
2021/07/01 10:46:08;;;;;;;1.45;1.35;;;;;;;;;;5078158;28;24421;-56
2021/07/01 10:48:34;;;;;;;1.50;1.40;;;;;;;;;;5072514;28;24411;-56
2021/07/01 10:51:12;;;;;;;1.40;1.30;;;;;;;;;;5082971;28;24488;-56
2021/07/01 10:53:39;;;;;;;1.80;1.30;;;;;;;;;;5072052;28;25038;-55
2021/07/01 10:56:16;;;;;;;1.42;1.33;;;;;;;;;;5074162;28;24952;-56
2021/07/01 10:58:41;;;;;;;1.38;1.27;;;;;;;;;;5072876;28;24426;-55
2021/07/01 11:01:07;;;;;;;1.20;1.10;;;;;;;;;;5069164;28;24414;-55
2021/07/01 11:03:32;;;;;;;1.30;1.20;;;;;;;;;;5071557;28;24510;-55
2021/07/01 11:05:59;;;;;;;1.00;1.00;;;;;;;;;;5080216;28;24425;-55
2021/07/01 11:08:31;;;;;;;1.77;1.50;;;;;;;;;;5073862;28;24421;-55
2021/07/01 11:10:57;;;;;;;1.40;1.30;;;;;;;;;;5071950;28;24978;-55
2021/07/01 11:13:24;;;;;;;1.33;1.10;;;;;;;;;;5086266;28;24475;-56
2021/07/01 11:16:02;;;;;;;1.30;1.20;;;;;;;;;;5075376;28;24441;-55
2021/07/01 11:18:42;;;;;;;1.35;1.20;;;;;;;;;;5085072;28;24440;-55
2021/07/01 11:21:08;;;;;;;1.30;1.20;;;;;;;;;;5082709;28;24767;-56
2021/07/01 11:23:33;;;;;;;2.38;1.30;;;;;;;;;;5085905;28;24950;-55
2021/07/01 11:25:59;;;;;;;2.00;1.50;;;;;;;;;;5070098;28;24503;-55
2021/07/01 11:28:29;;;;;;;1.57;1.47;;;;;;;;;;5072682;28;24880;-56
2021/07/01 11:30:58;;;;;;;1.80;1.70;;;;;;;;;;5065571;28;24812;-56
2021/07/01 11:33:23;;;;;;;1.90;1.60;;;;;;;;;;5069782;28;24429;-56
2021/07/01 11:35:49;;;;;;;2.50;1.70;;;;;;;;;;5084544;28;24950;-56
2021/07/01 11:38:31;;;;;;;2.15;1.70;;;;;;;;;;5073313;28;24414;-56
2021/07/01 11:41:00;;;;;;;1.52;1.42;;;;;;;;;;5070034;28;24497;-56
2021/07/01 11:43:25;;;;;;;1.80;1.70;;;;;;;;;;5066780;28;24409;-56
2021/07/01 11:45:51;;;;;;;1.60;1.50;;;;;;;;;;5073567;28;24571;-56
2021/07/01 11:48:17;;;;;;;1.80;1.70;;;;;;;;;;5072668;28;24821;-55
2021/07/01 11:50:43;;;;;;;1.80;1.70;;;;;;;;;;5073013;28;24434;-56
2021/07/01 11:53:08;;;;;;;1.60;1.50;;;;;;;;;;5068351;28;24504;-55
2021/07/01 11:55:33;;;;;;;1.60;1.50;;;;;;;;;;5074034;28;24455;-56
2021/07/01 11:57:58;;;;;;;1.90;1.80;;;;;;;;;;5072579;28;24960;-56
2021/07/01 12:00:24;;;;;;;1.80;1.70;;;;;;;;;;5080623;28;24399;-55
2021/07/01 12:02:50;;;;;;;1.70;1.60;;;;;;;;;;5083433;28;24600;-55
2021/07/01 12:05:15;;;;;;;1.83;1.73;;;;;;;;;;5070314;28;24907;-56
2021/07/01 12:07:42;;;;;;;1.60;1.50;;;;;;;;;;5085879;28;24401;-56
2021/07/01 12:10:08;;;;;;;2.00;1.90;;;;;;;;;;5073132;28;24507;-56
2021/07/01 12:12:34;;;;;;;2.00;1.90;;;;;;;;;;5072384;28;24508;-55
2021/07/01 12:15:09;;;;;;;1.80;1.70;;;;;;;;;;5086119;28;24947;-56
2021/07/01 12:17:48;;;;;;;2.10;1.90;;;;;;;;;;5077117;28;24461;-56
2021/07/01 12:20:34;;;;;;;2.45;1.70;;;;;;;;;;5065725;28;25032;-56
2021/07/01 12:23:00;;;;;;;1.90;1.80;;;;;;;;;;5065852;28;24429;-56
2021/07/01 12:25:25;;;;;;;2.10;2.00;;;;;;;;;;5070390;28;24414;-56
2021/07/01 12:28:05;;;;;;;2.00;1.90;;;;;;;;;;5075741;28;24422;-56
2021/07/01 12:30:50;;;;;;;2.07;1.97;;;;;;;;;;5073257;28;24421;-56
2021/07/01 12:33:34;;;;;;;3.22;2.13;;;;;;;;;;5074793;28;24880;-56
2021/07/01 12:36:10;;;;;;;2.10;2.00;;;;;;;;;;5100542;28;24406;-57
2021/07/01 12:38:37;;;;;;;2.30;2.10;;;;;;;;;;5080355;28;24429;-57
2021/07/01 12:41:03;;;;;;;2.03;1.83;;;;;;;;;;5084847;28;24776;-56
2021/07/01 12:43:44;;;;;;;2.10;2.00;;;;;;;;;;5083726;28;24453;-56
2021/07/01 12:46:09;;;;;;;2.00;1.90;;;;;;;;;;5068282;28;24427;-56
2021/07/01 12:48:39;;;;;;;3.00;1.80;;;;;;;;;;5076701;28;25069;-56
2021/07/01 12:51:23;;;;;;;1.80;1.70;;;;;;;;;;5074272;28;24429;-56
2021/07/01 12:53:48;;;;;;;1.90;1.70;;;;;;;;;;5065834;28;24474;-56
2021/07/01 12:56:30;;;;;;;2.70;1.98;;;;;;;;;;5076386;28;24442;-55
2021/07/01 12:58:55;;;;;;;2.00;1.90;;;;;;;;;;5076639;28;24449;-55
2021/07/01 13:01:20;;;;;;;1.92;1.83;;;;;;;;;;5074663;28;24507;-55
2021/07/01 13:03:45;;;;;;;2.08;1.70;;;;;;;;;;5067943;28;24426;-55
2021/07/01 13:06:10;;;;;;;2.20;1.80;;;;;;;;;;5068338;28;24418;-55
2021/07/01 13:08:39;;;;;;;3.10;1.83;;;;;;;;;;5081025;28;24541;-55
2021/07/01 13:11:04;;;;;;;2.40;2.20;;;;;;;;;;5078744;28;24434;-55
2021/07/01 13:13:29;;;;;;;2.43;2.23;;;;;;;;;;5074255;28;24437;-56
2021/07/01 13:16:03;;;;;;;2.50;2.30;;;;;;;;;;5072678;28;24988;-56
2021/07/01 13:18:28;;;;;;;2.60;2.40;;;;;;;;;;5069266;28;24512;-55
2021/07/01 13:21:06;;;;;;;2.75;2.28;;;;;;;;;;5077202;28;24995;-55
2021/07/01 13:23:31;;;;;;;2.90;2.10;;;;;;;;;;5071512;28;24430;-55
2021/07/01 13:25:56;;;;;;;3.63;2.07;;;;;;;;;;5065126;28;24472;-55
2021/07/01 13:28:21;;;;;;;2.50;2.30;;;;;;;;;;5071693;28;24501;-56
2021/07/01 13:30:46;;;;;;;2.67;2.47;;;;;;;;;;5072768;28;24928;-55
2021/07/01 13:33:12;;;;;;;2.80;2.50;;;;;;;;;;5072587;28;25126;-55
2021/07/01 13:35:40;;;;;;;3.17;2.80;;;;;;;;;;5064885;28;24423;-55
2021/07/01 13:38:09;;;;;;;3.00;2.80;;;;;;;;;;5065584;28;24415;-55
2021/07/01 13:40:34;;;;;;;2.63;2.53;;;;;;;;;;5079759;28;24433;-56
2021/07/01 13:43:04;;;;;;;2.80;2.60;;;;;;;;;;5077643;28;24525;-55
2021/07/01 13:45:30;;;;;;;2.70;2.50;;;;;;;;;;5077678;28;24444;-55
2021/07/01 13:47:57;;;;;;;3.78;2.60;;;;;;;;;;5070151;28;24460;-55
2021/07/01 13:50:46;;;;;;;2.55;2.35;;;;;;;;;;5069245;28;24429;-56
2021/07/01 13:53:16;;;;;;;3.30;2.40;;;;;;;;;;5070398;28;24522;-55
2021/07/01 13:55:49;;;;;;;2.40;2.30;;;;;;;;;;5073430;28;24497;-55
2021/07/01 13:58:18;;;;;;;2.45;2.25;;;;;;;;;;5075967;28;24488;-55
2021/07/01 14:00:45;;;;;;;2.85;2.55;;;;;;;;;;5084049;28;24425;-55
2021/07/01 14:03:11;;;;;;;2.50;2.20;;;;;;;;;;5068093;28;24434;-55
2021/07/01 14:05:38;;;;;;;2.30;2.10;;;;;;;;;;5068414;28;24472;-55
2021/07/01 14:08:04;;;;;;;2.20;2.00;;;;;;;;;;5078955;28;24521;-55
2021/07/01 14:10:31;;;;;;;2.50;2.30;;;;;;;;;;5069810;28;24513;-55
2021/07/01 14:12:57;;;;;;;2.42;2.10;;;;;;;;;;5073837;28;24998;-55
2021/07/01 14:15:22;;;;;;;2.20;2.00;;;;;;;;;;5077037;28;24431;-55
2021/07/01 14:17:47;;;;;;;2.00;1.90;;;;;;;;;;5073531;28;25019;-55
2021/07/01 14:20:15;;;;;;;2.10;2.00;;;;;;;;;;5077962;28;24535;-55
2021/07/01 14:22:52;;;;;;;1.80;1.70;;;;;;;;;;5063570;28;24450;-56
2021/07/01 14:25:17;;;;;;;2.30;2.10;;;;;;;;;;5066215;28;24431;-55
2021/07/01 14:27:42;;;;;;;2.00;1.90;;;;;;;;;;5069423;28;24433;-56
2021/07/01 14:30:07;;;;;;;2.40;2.20;;;;;;;;;;5075466;28;24426;-55
2021/07/01 14:32:33;;;;;;;2.50;2.40;;;;;;;;;;5069664;28;24426;-55
2021/07/01 14:34:58;;;;;;;2.50;2.30;;;;;;;;;;5081174;28;24438;-55
2021/07/01 14:37:23;;;;;;;2.40;2.20;;;;;;;;;;5081727;28;24474;-55
2021/07/01 14:39:59;;;;;;;2.20;2.10;;;;;;;;;;5071235;28;24476;-55
2021/07/01 14:42:24;;;;;;;2.42;2.25;;;;;;;;;;5065839;28;24430;-55
2021/07/01 14:45:04;;;;;;;2.30;2.10;;;;;;;;;;5066355;28;24431;-55
2021/07/01 14:47:29;;;;;;;1.98;1.88;;;;;;;;;;5068073;28;24562;-55
2021/07/01 14:49:54;;;;;;;2.70;2.03;;;;;;;;;;5064920;28;24879;-54
2021/07/01 14:52:21;;;;;;;2.10;2.00;;;;;;;;;;5065202;28;24426;-55
2021/07/01 14:54:51;;;;;;;2.10;1.70;;;;;;;;;;5068267;28;24549;-55
2021/07/01 14:57:21;;;;;;;2.10;2.00;;;;;;;;;;5069989;28;24411;-55
2021/07/01 14:59:53;;;;;;;2.10;1.90;;;;;;;;;;5074384;28;24966;-55
2021/07/01 15:02:37;;;;;;;2.90;1.92;;;;;;;;;;5074332;28;24467;-55
2021/07/01 15:05:03;;;;;;;2.00;1.90;;;;;;;;;;5074444;28;24773;-55
2021/07/01 15:07:35;;;;;;;1.80;1.70;;;;;;;;;;5069945;28;24498;-55
2021/07/01 15:10:06;;;;;;;2.30;1.80;;;;;;;;;;5070437;28;24442;-55
2021/07/01 15:12:37;;;;;;;1.80;1.70;;;;;;;;;;5069705;28;24484;-55
2021/07/01 15:15:03;;;;;;;2.30;2.10;;;;;;;;;;5074852;28;24483;-54
2021/07/01 15:17:33;;;;;;;2.03;1.92;;;;;;;;;;5084777;28;24410;-55
2021/07/01 15:19:58;;;;;;;1.88;1.77;;;;;;;;;;5085586;28;24732;-55
2021/07/01 15:22:23;;;;;;;1.90;1.80;;;;;;;;;;5067345;28;24510;-55
2021/07/01 15:24:49;;;;;;;2.40;2.20;;;;;;;;;;5067155;28;24494;-55
2021/07/01 15:27:14;;;;;;;3.40;1.95;;;;;;;;;;5067000;28;24415;-55
2021/07/01 15:29:39;;;;;;;1.93;1.83;;;;;;;;;;5085292;28;24419;-55
2021/07/01 15:32:05;;;;;;;2.10;1.90;;;;;;;;;;5069927;28;24818;-55
2021/07/01 15:34:31;;;;;;;1.90;1.80;;;;;;;;;;5066509;28;25039;-55
2021/07/01 15:36:56;;;;;;;1.80;1.70;;;;;;;;;;5067149;28;24422;-55
2021/07/01 15:39:22;;;;;;;2.10;2.00;;;;;;;;;;5074280;28;24967;-54
2021/07/01 15:41:47;;;;;;;2.00;1.90;;;;;;;;;;5072216;28;24410;-55
2021/07/01 15:44:12;;;;;;;2.27;2.07;;;;;;;;;;5080903;28;24422;-55
2021/07/01 15:46:39;;;;;;;3.10;2.20;;;;;;;;;;5069382;28;24426;-55
2021/07/01 15:49:05;;;;;;;2.20;2.08;;;;;;;;;;5081679;28;24430;-55
2021/07/01 15:51:31;;;;;;;2.47;2.27;;;;;;;;;;5066518;28;24967;-55
2021/07/01 15:53:56;;;;;;;2.00;1.90;;;;;;;;;;5075009;28;24435;-55
2021/07/01 15:56:21;;;;;;;2.50;2.20;;;;;;;;;;5077159;28;24493;-54
2021/07/01 15:58:46;;;;;;;2.40;2.30;;;;;;;;;;5080922;28;24970;-55
2021/07/01 16:01:12;;;;;;;2.60;2.40;;;;;;;;;;5086818;28;24496;-55
2021/07/01 16:03:40;;;;;;;2.30;2.20;;;;;;;;;;5084213;28;24839;-54
2021/07/01 16:06:06;;;;;;;2.20;2.10;;;;;;;;;;5064830;28;24444;-55
2021/07/01 16:08:32;;;;;;;2.23;2.03;;;;;;;;;;5066106;28;24848;-54
2021/07/01 16:10:57;;;;;;;2.35;2.15;;;;;;;;;;5064656;28;25047;-55
2021/07/01 16:13:23;;;;;;;2.17;2.08;;;;;;;;;;5087383;28;24548;-56
2021/07/01 16:15:48;;;;;;;2.10;2.00;;;;;;;;;;5069446;28;24954;-56
2021/07/01 16:18:13;;;;;;;2.07;1.90;;;;;;;;;;5069465;28;24434;-55
2021/07/01 16:20:39;;;;;;;2.00;1.90;;;;;;;;;;5080875;28;24968;-55
2021/07/01 16:23:06;;;;;;;2.20;2.00;;;;;;;;;;5083514;28;24428;-56
2021/07/01 16:25:32;;;;;;;1.90;1.80;;;;;;;;;;5075378;28;24986;-56
2021/07/01 16:27:58;;;;;;;2.45;1.58;;;;;;;;;;5073671;28;24458;-56
2021/07/01 16:30:23;;;;;;;2.10;2.00;;;;;;;;;;5065794;28;24422;-56
2021/07/01 16:32:49;;;;;;;2.00;1.90;;;;;;;;;;5079812;28;24426;-56
2021/07/01 16:35:14;;;;;;;2.22;1.90;;;;;;;;;;5071615;28;24429;-56
2021/07/01 16:37:39;;;;;;;1.90;1.80;;;;;;;;;;5067877;28;24438;-55
2021/07/01 16:40:06;;;;;;;2.13;1.92;;;;;;;;;;5074495;28;24413;-56
2021/07/01 16:42:31;;;;;;;1.70;1.60;;;;;;;;;;5080033;28;24987;-55
2021/07/01 16:44:57;;;;;;;2.00;1.90;;;;;;;;;;5074503;28;24415;-56
2021/07/01 16:47:24;;;;;;;2.30;2.10;;;;;;;;;;5083080;28;24416;-55
2021/07/01 16:49:52;;;;;;;2.50;2.30;;;;;;;;;;5074639;28;24419;-55
2021/07/01 16:52:20;;;;;;;2.10;1.90;;;;;;;;;;5079991;28;24418;-55
2021/07/01 16:54:45;;;;;;;1.70;1.60;;;;;;;;;;5075644;28;24521;-55
2021/07/01 16:57:16;;;;;;;1.70;1.60;;;;;;;;;;5070465;28;24403;-55
2021/07/01 16:59:44;;;;;;;2.05;1.35;;;;;;;;;;5068761;28;25030;-55
2021/07/01 17:02:12;;;;;;;1.70;1.60;;;;;;;;;;5065375;28;25694;-55
2021/07/01 17:04:38;;;;;;;1.98;1.80;;;;;;;;;;5076885;28;24467;-56
2021/07/01 17:07:03;;;;;;;2.00;1.80;;;;;;;;;;5063455;28;24415;-55
2021/07/01 17:09:30;;;;;;;1.50;1.40;;;;;;;;;;5067151;28;24425;-55
2021/07/01 17:11:56;;;;;;;1.70;1.40;;;;;;;;;;5064171;28;24410;-55
2021/07/01 17:14:22;;;;;;;1.50;1.40;;;;;;;;;;5061806;28;24466;-55
2021/07/01 17:16:49;;;;;;;2.43;1.60;;;;;;;;;;5085894;28;24505;-56
2021/07/01 17:19:19;;;;;;;1.65;1.55;;;;;;;;;;5087206;28;24800;-55
2021/07/01 17:21:45;;;;;;;1.67;1.58;;;;;;;;;;5084764;28;24402;-55
2021/07/01 17:24:10;;;;;;;1.40;1.30;;;;;;;;;;5086461;28;24777;-56
2021/07/01 17:26:36;;;;;;;2.00;1.70;;;;;;;;;;5070375;28;24526;-55
2021/07/01 17:29:02;;;;;;;2.30;1.70;;;;;;;;;;5067424;28;24430;-56